Tucson, AZ

6:32 AM MST on August 26, 2016 (GMT -0700)
| | Change Station

Elev -9999 ft 0.00 °N, 0.00 °E | Updated

Partly Cloudy
Partly Cloudy
82 °F
Feels Like 83 °F
N
6
Wind Variable Wind from SSW
Gusts mph

Today
High -- | Low -- °F
--% Chance of Precip.
Yesterday
High -- | Low -- °F
Precip. -- in
Pressure 29.89 in
Visibility 10.0 miles
Clouds Mostly Cloudy 13000 ft
Heat Index 83 °F
Dew Point 60 °F
Humidity 47%
Rainfall --
Snow Depth Not available.
5:54 AM 6:54 PM
Waning Crescent, 34% visible
METAR KDMA 261258Z AUTO 13005KT 10SM BKN130 24/15 A3002 RMK AO2 SLP120 T02390149 $
Pressure 29.89 in
Visibility 10.0 miles
Clouds Mostly Cloudy 13000 ft
Heat Index 83 °F
Dew Point 60 °F
Humidity 47%
Rainfall --
Snow Depth Not available.
5:54 AM 6:54 PM
Waning Crescent, 34% visible
METAR KDMA 261258Z AUTO 13005KT 10SM BKN130 24/15 A3002 RMK AO2 SLP120 T02390149 $

10-Day Weather Forecast

Almanac

Astronomy

Aug. 26, 2016 Rise Set
Actual Time
Civil Twilight
Nautical Twilight
Astronomical Twilight
Moon
Length of Visible Light
Length of Day
Tomorrow will be .
, % of the Moon is Illuminated

Today's Extremes

State Highs State Lows

Community

WunderPhotos

Upload Photos

1,935,084 photos uploaded!

WunderBlog® & News

Nearby

Air Quality

  Air Quality AQ Index Pollutant
Not available.

Snow Depth

Station Depth Elevation

Earthquake Activity

City Distance Mag. Time & Date
Minimum magnitude displayed is 2.5.

Coastal Water Temperatures

Place Temperature

Stations

Nearby Weather Stations

Station Location Temp. Windchill Dew Point Humidity Wind Precip. Elev Updated Type
                   

Watches & Warnings

There are currently no watches in effect.